createdAt,value
2019-01-13T00:00:30.957Z,991.04
2019-01-13T00:01:41.208Z,990.94
2019-01-13T00:02:51.438Z,990.88
2019-01-13T00:04:02.438Z,990.87
2019-01-13T00:05:12.587Z,990.91
2019-01-13T00:06:22.686Z,990.95
2019-01-13T00:07:32.794Z,990.98
2019-01-13T00:08:42.991Z,990.88
2019-01-13T00:09:53.312Z,990.88
2019-01-13T00:11:07.337Z,991
2019-01-13T00:12:17.511Z,990.93
2019-01-13T00:13:27.584Z,990.99
2019-01-13T00:14:37.742Z,990.89
2019-01-13T00:15:47.910Z,990.96
2019-01-13T00:16:57.973Z,990.92
2019-01-13T00:18:08.331Z,990.84
2019-01-13T00:19:18.245Z,990.93
2019-01-13T00:20:28.321Z,990.87
2019-01-13T00:21:38.371Z,990.98
2019-01-13T00:22:48.450Z,990.96
2019-01-13T00:23:58.267Z,990.91
2019-01-13T00:25:08.746Z,990.9
2019-01-13T00:26:18.870Z,990.84
2019-01-13T00:27:29.003Z,990.96
2019-01-13T00:28:39.090Z,991.02
2019-01-13T00:29:48.894Z,990.96
2019-01-13T00:30:59.020Z,990.83
2019-01-13T00:32:09.149Z,990.91
2019-01-13T00:33:18.993Z,990.91
2019-01-13T00:34:29.064Z,990.92
2019-01-13T00:35:39.132Z,990.82
2019-01-13T00:36:49.221Z,990.85
2019-01-13T00:38:00.592Z,990.94
2019-01-13T00:39:10.651Z,990.75
2019-01-13T00:40:20.470Z,990.75
2019-01-13T00:41:30.557Z,990.76
2019-01-13T00:42:41.462Z,990.65
2019-01-13T00:43:51.558Z,990.71
2019-01-13T00:45:02.271Z,990.57
2019-01-13T00:46:12.355Z,990.62
2019-01-13T00:47:22.539Z,990.63
2019-01-13T00:48:32.704Z,990.6
2019-01-13T00:49:42.897Z,990.69
2019-01-13T00:50:53.102Z,990.61
2019-01-13T00:52:04.347Z,990.66
2019-01-13T00:53:14.648Z,990.57
2019-01-13T00:54:24.849Z,990.62
2019-01-13T00:55:34.738Z,990.63
2019-01-13T00:56:44.815Z,990.68
2019-01-13T00:57:54.958Z,990.64
2019-01-13T00:59:06.101Z,990.61
2019-01-13T01:00:16.147Z,990.61
2019-01-13T01:01:32.037Z,990.74
2019-01-13T01:02:42.246Z,990.66
2019-01-13T01:03:52.350Z,990.66
2019-01-13T01:05:02.424Z,990.66
2019-01-13T01:06:12.770Z,990.72
2019-01-13T01:07:22.836Z,990.74
2019-01-13T01:08:32.703Z,990.62
2019-01-13T01:09:42.909Z,990.73
2019-01-13T01:10:53.071Z,990.78
2019-01-13T01:12:03.279Z,990.74
2019-01-13T01:13:12.815Z,990.7
2019-01-13T01:14:22.655Z,990.71
2019-01-13T01:15:32.953Z,990.64
2019-01-13T01:16:43.066Z,990.66
2019-01-13T01:17:53.352Z,990.73
2019-01-13T01:19:03.539Z,990.62
2019-01-13T01:20:13.317Z,990.59
2019-01-13T01:21:23.059Z,990.64
2019-01-13T01:22:33.175Z,990.69
2019-01-13T01:23:43.335Z,990.74
2019-01-13T01:24:53.149Z,990.7
2019-01-13T01:26:03.282Z,990.69
2019-01-13T01:27:13.362Z,990.72
2019-01-13T01:28:23.559Z,990.71
2019-01-13T01:29:33.625Z,990.7
2019-01-13T01:30:43.866Z,990.63
2019-01-13T01:31:54.061Z,990.7
2019-01-13T01:33:03.785Z,990.68
2019-01-13T01:34:13.833Z,990.63
2019-01-13T01:35:23.945Z,990.56
2019-01-13T01:36:33.815Z,990.62
2019-01-13T01:37:43.956Z,990.56
2019-01-13T01:38:54.061Z,990.58
2019-01-13T01:40:05.976Z,990.51
2019-01-13T01:41:16.022Z,990.47
2019-01-13T01:42:26.138Z,990.51
2019-01-13T01:43:36.052Z,990.4
2019-01-13T01:44:46.103Z,990.4
2019-01-13T01:45:56.155Z,990.4
2019-01-13T01:47:06.035Z,990.45
2019-01-13T01:48:16.110Z,990.47
2019-01-13T01:49:26.218Z,990.41
2019-01-13T01:50:36.276Z,990.39
2019-01-13T01:51:46.420Z,990.23
2019-01-13T01:52:56.470Z,990.38
2019-01-13T01:54:07.387Z,990.4
2019-01-13T01:55:17.496Z,990.29
2019-01-13T01:56:27.354Z,990.31
2019-01-13T01:57:37.154Z,990.3
2019-01-13T01:58:47.201Z,990.3
2019-01-13T01:59:57.029Z,990.26
2019-01-13T02:01:07.031Z,990.22
2019-01-13T02:02:16.839Z,990.31
2019-01-13T02:03:26.647Z,990.33
2019-01-13T02:04:36.725Z,990.3
2019-01-13T02:05:47.148Z,990.35
2019-01-13T02:06:57.085Z,990.32
2019-01-13T02:08:08.607Z,990.34
2019-01-13T02:09:18.151Z,990.34
2019-01-13T02:10:28.218Z,990.35
2019-01-13T02:11:38.342Z,990.4
2019-01-13T02:12:48.410Z,990.45
2019-01-13T02:13:58.522Z,990.36
2019-01-13T02:15:10.141Z,990.38
2019-01-13T02:16:20.200Z,990.37
2019-01-13T02:17:29.995Z,990.35
2019-01-13T02:18:40.049Z,990.38
2019-01-13T02:19:50.554Z,990.38
2019-01-13T02:21:00.950Z,990.38
2019-01-13T02:22:11.006Z,990.38
2019-01-13T02:23:21.054Z,990.4
2019-01-13T02:24:31.106Z,990.38
2019-01-13T02:25:40.942Z,990.44
2019-01-13T02:26:50.479Z,990.45
2019-01-13T02:28:00.526Z,990.42
2019-01-13T02:29:10.600Z,990.46
2019-01-13T02:30:20.665Z,990.39
2019-01-13T02:31:31.120Z,990.44
2019-01-13T02:32:41.198Z,990.39
2019-01-13T02:33:51.299Z,990.43
2019-01-13T02:35:01.113Z,990.43
2019-01-13T02:36:11.169Z,990.43
2019-01-13T02:37:20.978Z,990.48
2019-01-13T02:38:30.795Z,990.46
2019-01-13T02:39:40.944Z,990.46
2019-01-13T02:40:51.090Z,990.43
2019-01-13T02:42:01.176Z,990.45
2019-01-13T02:43:10.733Z,990.4
2019-01-13T02:44:20.280Z,990.47
2019-01-13T02:45:30.332Z,990.46
2019-01-13T02:46:40.618Z,990.5
2019-01-13T02:47:50.668Z,990.48
2019-01-13T02:49:04.513Z,990.43
2019-01-13T02:50:14.337Z,990.47
2019-01-13T02:51:24.395Z,990.48
2019-01-13T02:52:36.072Z,990.52
2019-01-13T02:53:45.890Z,990.53
2019-01-13T02:54:55.954Z,990.45
2019-01-13T02:56:06.101Z,990.55
2019-01-13T02:57:16.377Z,990.51
2019-01-13T02:58:26.179Z,990.48
2019-01-13T02:59:36.320Z,990.49
2019-01-13T03:00:46.368Z,990.44
2019-01-13T03:02:15.359Z,990.46
2019-01-13T03:03:29.333Z,990.41
2019-01-13T03:35:18.873Z,990.3
2019-01-13T03:36:28.914Z,990.27
2019-01-13T03:37:38.821Z,990.22
2019-01-13T03:38:48.626Z,990.22
2019-01-13T03:39:58.714Z,990.21
2019-01-13T03:41:08.764Z,990.15
2019-01-13T03:42:18.818Z,990.24
2019-01-13T03:43:28.872Z,990.19
2019-01-13T03:44:38.660Z,990.23
2019-01-13T03:45:48.730Z,990.18
2019-01-13T03:46:58.820Z,990.23
2019-01-13T03:48:08.989Z,990.18
2019-01-13T03:49:19.041Z,990.11
2019-01-13T03:50:29.120Z,990.16
2019-01-13T03:51:38.927Z,990.2
2019-01-13T03:52:52.986Z,990.14
2019-01-13T03:54:03.410Z,990.14
2019-01-13T03:55:13.479Z,990.17
2019-01-13T03:56:23.332Z,990.25
2019-01-13T03:57:33.423Z,990.17
2019-01-13T03:58:43.588Z,990.24
2019-01-13T03:59:53.426Z,990.13
2019-01-13T04:01:03.579Z,990.21
2019-01-13T04:02:21.120Z,990.27
2019-01-13T04:03:30.914Z,990.19
2019-01-13T04:04:41.003Z,990.27
2019-01-13T04:05:51.080Z,990.22
2019-01-13T04:07:03.727Z,990.21
2019-01-13T04:08:13.633Z,990.2
2019-01-13T04:09:23.699Z,990.18
2019-01-13T04:10:33.810Z,990.29
2019-01-13T04:11:43.883Z,990.29
2019-01-13T04:12:53.426Z,990.26
2019-01-13T04:14:05.072Z,990.26
2019-01-13T04:15:14.866Z,990.19
2019-01-13T04:16:24.434Z,990.28
2019-01-13T04:17:34.235Z,990.21
2019-01-13T04:18:44.503Z,990.21
2019-01-13T04:19:54.308Z,990.18
2019-01-13T04:21:04.132Z,990.22
2019-01-13T04:22:13.954Z,990.21
2019-01-13T04:23:23.988Z,990.22
2019-01-13T04:24:33.844Z,990.18
2019-01-13T04:25:43.916Z,990.15
2019-01-13T04:26:54.007Z,990.19
2019-01-13T04:28:04.725Z,990.16
2019-01-13T04:29:14.760Z,990.18
2019-01-13T04:30:24.573Z,990.16
2019-01-13T04:31:34.781Z,990.19
2019-01-13T04:32:44.834Z,990.15
2019-01-13T04:33:54.902Z,990.11
2019-01-13T04:35:04.972Z,990.14
2019-01-13T04:36:15.030Z,990.14
2019-01-13T04:37:25.210Z,990.16
2019-01-13T04:38:34.998Z,990.12
2019-01-13T04:39:44.810Z,990.12
2019-01-13T04:40:54.888Z,990.11
2019-01-13T04:42:04.698Z,990.15
2019-01-13T04:43:14.790Z,990.1
2019-01-13T04:44:24.868Z,990.12
2019-01-13T04:45:34.937Z,990.09
2019-01-13T04:46:44.723Z,990.07
2019-01-13T04:47:54.786Z,990.11
2019-01-13T04:49:04.901Z,990.15
2019-01-13T04:50:14.779Z,990.09
2019-01-13T04:51:24.587Z,990.19
2019-01-13T04:52:34.646Z,990.13
2019-01-13T04:53:44.444Z,990.11
2019-01-13T04:54:54.498Z,990.16
2019-01-13T04:56:04.287Z,990.09
2019-01-13T04:57:14.340Z,990.1
2019-01-13T04:58:24.156Z,990.07
2019-01-13T04:59:34.240Z,990.1
2019-01-13T05:00:43.834Z,990.04
2019-01-13T05:01:53.641Z,990.04
2019-01-13T05:03:03.705Z,990.06
2019-01-13T05:04:13.768Z,990.08
2019-01-13T05:05:23.572Z,990.14
2019-01-13T05:06:33.362Z,990.12
2019-01-13T05:07:43.271Z,990.14
2019-01-13T05:08:53.725Z,990.1
2019-01-13T05:10:06.090Z,990.08
2019-01-13T05:11:16.152Z,990.15
2019-01-13T05:12:27.837Z,990.17
2019-01-13T05:13:37.722Z,990.2
2019-01-13T05:14:47.813Z,990.21
2019-01-13T05:15:57.875Z,990.2
2019-01-13T05:17:08.781Z,990.25
2019-01-13T05:18:18.892Z,990.12
2019-01-13T05:19:29.024Z,990.19
2019-01-13T05:20:40.278Z,990.25
2019-01-13T05:21:50.503Z,990.13
2019-01-13T05:23:00.797Z,990.23
2019-01-13T05:24:10.884Z,990.24
2019-01-13T05:25:20.678Z,990.22
2019-01-13T05:26:30.202Z,990.21
2019-01-13T05:27:40.279Z,990.2
2019-01-13T05:28:50.329Z,990.25
2019-01-13T05:30:00.229Z,990.17
2019-01-13T05:31:10.317Z,990.18
2019-01-13T05:32:20.514Z,990.16
2019-01-13T05:33:30.590Z,990.21
2019-01-13T05:34:40.640Z,990.23
2019-01-13T05:35:50.701Z,990.29
2019-01-13T05:37:00.790Z,990.31
2019-01-13T05:38:10.641Z,990.29
2019-01-13T05:39:20.495Z,990.29
2019-01-13T05:40:30.666Z,990.34
2019-01-13T05:41:40.739Z,990.37
2019-01-13T05:42:50.830Z,990.33
2019-01-13T05:44:01.418Z,990.32
2019-01-13T05:45:11.493Z,990.35
2019-01-13T05:46:21.306Z,990.33
2019-01-13T05:47:31.367Z,990.25
2019-01-13T05:48:41.430Z,990.32
2019-01-13T05:49:51.484Z,990.28
2019-01-13T05:51:01.680Z,990.24
2019-01-13T05:52:11.726Z,990.24
2019-01-13T05:53:21.521Z,990.32
2019-01-13T05:54:31.800Z,990.32
2019-01-13T05:55:41.974Z,990.3
2019-01-13T05:56:52.017Z,990.25
2019-01-13T05:58:02.125Z,990.23
2019-01-13T05:59:12.027Z,990.2
2019-01-13T06:00:22.335Z,990.13
2019-01-13T06:01:33.944Z,990.15
2019-01-13T06:02:49.818Z,990.12
2019-01-13T06:03:59.861Z,990.16
2019-01-13T06:05:09.894Z,990.16
2019-01-13T06:06:19.958Z,990.13
2019-01-13T06:07:29.774Z,990.09
2019-01-13T06:08:39.583Z,990.09
2019-01-13T06:09:49.640Z,990.04
2019-01-13T06:10:59.948Z,990.07
2019-01-13T06:12:09.585Z,990.11
2019-01-13T06:13:19.698Z,990.15
2019-01-13T06:14:29.242Z,990.14
2019-01-13T06:15:39.032Z,990.1
2019-01-13T06:16:49.092Z,990.13
2019-01-13T06:17:58.895Z,990.07
2019-01-13T06:19:08.977Z,990.06
2019-01-13T06:20:18.793Z,990.07
2019-01-13T06:21:28.859Z,990.09
2019-01-13T06:22:38.907Z,990.09
2019-01-13T06:23:48.453Z,990.09
2019-01-13T06:24:58.510Z,990.04
2019-01-13T06:26:08.595Z,990.08
2019-01-13T06:27:18.394Z,990.02
2019-01-13T06:28:28.434Z,989.95
2019-01-13T06:29:38.517Z,989.97
2019-01-13T06:30:48.469Z,989.99
2019-01-13T06:31:58.260Z,989.98
2019-01-13T06:33:08.072Z,990.03
2019-01-13T06:34:18.119Z,990.02
2019-01-13T06:35:28.617Z,990
2019-01-13T06:36:38.660Z,990.01
2019-01-13T06:37:48.697Z,990.09
2019-01-13T06:38:58.742Z,990
2019-01-13T06:40:10.884Z,990.03
2019-01-13T06:41:20.927Z,990.04
2019-01-13T06:42:31.036Z,990
2019-01-13T06:43:40.839Z,990.03
2019-01-13T06:44:50.122Z,990.11
2019-01-13T06:45:59.922Z,990
2019-01-13T06:47:09.722Z,989.99
2019-01-13T06:48:19.811Z,990
2019-01-13T06:49:29.609Z,990.03
2019-01-13T06:50:39.403Z,990.07
2019-01-13T06:51:49.693Z,990.04
2019-01-13T06:52:59.237Z,990.06
2019-01-13T06:54:09.253Z,990.05
2019-01-13T06:55:19.050Z,990.1
2019-01-13T06:56:28.886Z,990.07
2019-01-13T06:57:38.692Z,990.15
2019-01-13T06:58:48.980Z,990.15
2019-01-13T06:59:59.017Z,990.2
2019-01-13T07:01:11.169Z,990.21
2019-01-13T07:02:20.963Z,990.19
2019-01-13T07:03:30.506Z,990.19
2019-01-13T07:04:40.583Z,990.21
2019-01-13T07:05:50.397Z,990.2
2019-01-13T07:07:02.648Z,990.17
2019-01-13T07:08:12.702Z,990.25
2019-01-13T07:09:22.767Z,990.24
2019-01-13T07:10:32.815Z,990.19
2019-01-13T07:11:42.993Z,990.23
2019-01-13T07:12:52.787Z,990.2
2019-01-13T07:14:02.832Z,990.17
2019-01-13T07:15:12.701Z,990.18
2019-01-13T07:16:22.772Z,990.16
2019-01-13T07:17:33.787Z,990.23
2019-01-13T07:18:43.845Z,990.2
2019-01-13T07:19:54.191Z,990.16
2019-01-13T07:21:03.991Z,990.19
2019-01-13T07:22:14.058Z,990.16
2019-01-13T07:23:23.873Z,990.04
2019-01-13T07:24:33.671Z,990.11
2019-01-13T07:25:43.282Z,990.12
2019-01-13T07:26:53.069Z,990.12
2019-01-13T07:28:05.576Z,990.17
2019-01-13T07:29:15.726Z,990.13
2019-01-13T07:30:25.538Z,990.08
2019-01-13T07:31:35.609Z,990.06
2019-01-13T07:32:45.669Z,990.12
2019-01-13T07:33:55.752Z,990.01
2019-01-13T07:35:05.823Z,989.99
2019-01-13T07:36:15.876Z,989.97
2019-01-13T07:37:25.481Z,989.94
2019-01-13T07:38:35.563Z,989.96
2019-01-13T07:39:45.625Z,989.96
2019-01-13T07:40:55.691Z,989.92
2019-01-13T07:42:05.749Z,989.85
2019-01-13T07:43:16.030Z,989.89
2019-01-13T07:44:26.082Z,989.84
2019-01-13T07:45:36.121Z,989.86
2019-01-13T07:46:45.953Z,989.85
2019-01-13T07:47:56.004Z,989.86
2019-01-13T07:49:05.840Z,989.86
2019-01-13T07:50:15.767Z,989.82
2019-01-13T07:51:25.827Z,989.9
2019-01-13T07:52:35.623Z,989.83
2019-01-13T07:53:45.448Z,989.82
2019-01-13T07:54:55.533Z,989.79
2019-01-13T07:56:06.582Z,989.83
2019-01-13T07:57:17.794Z,989.82
2019-01-13T07:58:28.055Z,989.79
2019-01-13T07:59:37.702Z,989.87
2019-01-13T08:00:47.754Z,989.83
2019-01-13T08:01:58.703Z,989.84
2019-01-13T08:03:08.905Z,989.83
2019-01-13T08:15:30.499Z,989.66
2019-01-13T08:16:40.538Z,989.68
2019-01-13T08:17:50.571Z,989.67
2019-01-13T08:19:00.644Z,989.67
2019-01-13T08:20:10.717Z,989.68
2019-01-13T08:21:20.837Z,989.63
2019-01-13T08:22:31.065Z,989.62
2019-01-13T08:23:41.122Z,989.69
2019-01-13T08:24:51.195Z,989.67
2019-01-13T08:26:01.857Z,989.71
2019-01-13T08:27:11.647Z,989.69
2019-01-13T08:28:21.691Z,989.71
2019-01-13T08:29:32.736Z,989.73
2019-01-13T08:30:42.635Z,989.74
2019-01-13T08:31:52.677Z,989.71
2019-01-13T08:33:02.735Z,989.71
2019-01-13T08:34:12.818Z,989.71
2019-01-13T08:35:22.627Z,989.73
2019-01-13T08:36:32.173Z,989.73
2019-01-13T08:37:41.721Z,989.69
2019-01-13T08:38:51.597Z,989.76
2019-01-13T08:40:03.444Z,989.83
2019-01-13T08:41:13.518Z,989.75
2019-01-13T08:42:23.332Z,989.81
2019-01-13T08:43:33.123Z,989.71
2019-01-13T08:44:43.191Z,989.83
2019-01-13T08:45:53.637Z,989.79
2019-01-13T08:47:04.598Z,989.9
2019-01-13T08:48:14.672Z,989.91
2019-01-13T08:49:24.509Z,989.89
2019-01-13T08:50:34.673Z,989.87
2019-01-13T08:51:44.719Z,989.96
2019-01-13T08:52:54.555Z,989.91
2019-01-13T08:54:04.353Z,989.97
2019-01-13T08:55:14.410Z,990.06
2019-01-13T08:56:24.490Z,989.94
2019-01-13T08:57:34.553Z,990.01
2019-01-13T08:58:44.631Z,989.97
2019-01-13T08:59:54.697Z,989.93
2019-01-13T09:01:04.926Z,990.04
2019-01-13T09:02:14.991Z,990.13
2019-01-13T09:03:25.047Z,990.05
2019-01-13T09:04:35.125Z,990.09
2019-01-13T09:05:44.929Z,990.01
2019-01-13T09:06:55.063Z,989.97
2019-01-13T09:08:05.204Z,990.02
2019-01-13T09:09:14.492Z,990.05
2019-01-13T09:10:24.055Z,990.06
2019-01-13T09:11:34.128Z,990.03
2019-01-13T09:12:44.284Z,990.16
2019-01-13T09:14:01.890Z,989.99
2019-01-13T09:15:11.968Z,989.98
2019-01-13T09:16:22.335Z,990.06
2019-01-13T09:17:32.412Z,990.02
2019-01-13T09:18:42.513Z,990.02
2019-01-13T09:19:52.625Z,989.99
2019-01-13T09:21:02.690Z,989.98
2019-01-13T09:22:12.781Z,990.04
2019-01-13T09:23:23.180Z,990.01
2019-01-13T09:24:33.300Z,990.07
2019-01-13T09:25:43.409Z,990.02
2019-01-13T09:26:53.211Z,989.92
2019-01-13T09:28:03.730Z,989.98
2019-01-13T09:29:13.887Z,989.88
2019-01-13T09:30:23.998Z,989.86
2019-01-13T09:31:34.346Z,989.87
2019-01-13T09:32:44.409Z,989.91
2019-01-13T09:33:54.592Z,989.87
2019-01-13T09:35:04.676Z,989.85
2019-01-13T09:36:14.726Z,989.8
2019-01-13T09:37:24.862Z,989.76
2019-01-13T09:38:34.942Z,989.77
2019-01-13T09:39:44.778Z,989.75
2019-01-13T09:40:54.859Z,989.76
2019-01-13T09:42:04.510Z,989.8
2019-01-13T09:43:14.559Z,989.72
2019-01-13T09:44:24.677Z,989.7
2019-01-13T09:45:34.223Z,989.71
2019-01-13T09:46:44.278Z,989.63
2019-01-13T09:47:54.214Z,989.64
2019-01-13T09:49:04.262Z,989.65
2019-01-13T09:50:14.418Z,989.66
2019-01-13T09:51:24.497Z,989.6
2019-01-13T09:52:34.601Z,989.65
2019-01-13T09:53:44.672Z,989.64
2019-01-13T09:54:54.731Z,989.62
2019-01-13T09:56:05.029Z,989.56
2019-01-13T09:57:15.215Z,989.56
2019-01-13T09:58:25.635Z,989.56
2019-01-13T09:59:35.706Z,989.61
2019-01-13T10:00:45.800Z,989.54
2019-01-13T10:01:55.370Z,989.53
2019-01-13T10:03:07.701Z,989.55
2019-01-13T10:04:18.524Z,989.45
2019-01-13T10:05:28.406Z,989.45
2019-01-13T10:06:38.712Z,989.42
2019-01-13T10:07:48.934Z,989.3
2019-01-13T10:08:59.265Z,989.36
2019-01-13T10:10:11.572Z,989.32
2019-01-13T10:11:21.462Z,989.28
2019-01-13T10:12:31.631Z,989.44
2019-01-13T10:13:41.487Z,989.24
2019-01-13T10:14:51.887Z,989.18
2019-01-13T10:16:02.051Z,989.19
2019-01-13T10:17:12.259Z,989.16
2019-01-13T10:18:22.314Z,989.11
2019-01-13T10:19:32.431Z,989.07
2019-01-13T10:20:42.682Z,989.08
2019-01-13T10:21:52.779Z,989
2019-01-13T10:23:03.783Z,988.98
2019-01-13T10:24:14.044Z,989.01
2019-01-13T10:25:23.916Z,988.94
2019-01-13T10:26:34.130Z,989.06
2019-01-13T10:27:44.301Z,989
2019-01-13T10:28:54.431Z,988.96
2019-01-13T10:30:04.790Z,988.99
2019-01-13T10:31:15.030Z,988.85
2019-01-13T10:32:25.480Z,988.81
2019-01-13T10:33:35.995Z,988.83
2019-01-13T10:34:46.206Z,988.91
2019-01-13T10:35:56.438Z,988.93
2019-01-13T10:37:07.457Z,988.82
2019-01-13T10:38:17.568Z,988.85
2019-01-13T10:39:27.396Z,988.8
2019-01-13T10:40:37.313Z,988.82
2019-01-13T10:41:47.422Z,988.77
2019-01-13T10:42:57.525Z,988.63
2019-01-13T10:44:07.711Z,988.69
2019-01-13T10:45:17.853Z,988.58
2019-01-13T10:46:27.987Z,988.54
2019-01-13T10:47:38.138Z,988.51
2019-01-13T10:48:48.041Z,988.6
2019-01-13T10:49:57.855Z,988.52
2019-01-13T10:51:07.750Z,988.39
2019-01-13T10:52:18.045Z,988.46
2019-01-13T10:53:28.216Z,988.47
2019-01-13T10:54:38.313Z,988.58
2019-01-13T10:55:48.404Z,988.49
2019-01-13T10:56:58.587Z,988.48
2019-01-13T10:58:09.784Z,988.55
2019-01-13T10:59:19.759Z,988.52
2019-01-13T11:00:29.871Z,988.5
2019-01-13T11:01:40.375Z,988.6
2019-01-13T11:02:50.546Z,988.6
2019-01-13T11:04:08.178Z,988.62
2019-01-13T11:05:18.149Z,988.55
2019-01-13T11:06:28.527Z,988.54
2019-01-13T11:07:38.870Z,988.54
2019-01-13T11:08:49.441Z,988.55
2019-01-13T11:09:59.781Z,988.51
2019-01-13T11:11:11.589Z,988.4
2019-01-13T11:12:22.192Z,988.27
2019-01-13T11:13:32.272Z,988.24
2019-01-13T11:14:42.221Z,988.31
2019-01-13T11:15:52.108Z,988.25
2019-01-13T11:17:02.324Z,988.09
2019-01-13T11:18:12.406Z,988.2
2019-01-13T11:19:22.574Z,988.15
2019-01-13T11:20:32.686Z,988.14
2019-01-13T11:21:43.056Z,988.05
2019-01-13T11:22:53.280Z,988.01
2019-01-13T11:24:05.308Z,987.97
2019-01-13T11:25:15.442Z,988.01
2019-01-13T11:26:25.602Z,987.98
2019-01-13T11:27:35.571Z,988.02
2019-01-13T11:28:45.810Z,987.99
2019-01-13T11:29:55.888Z,987.96
2019-01-13T11:31:08.942Z,987.84
2019-01-13T11:32:19.092Z,987.83
2019-01-13T11:33:29.254Z,987.83
2019-01-13T11:34:39.330Z,987.86
2019-01-13T11:35:48.898Z,987.79
2019-01-13T11:36:58.767Z,987.83
2019-01-13T11:38:11.241Z,987.84
2019-01-13T11:39:21.369Z,987.79
2019-01-13T11:40:31.695Z,987.81
2019-01-13T11:41:41.782Z,987.74
2019-01-13T11:42:51.857Z,987.76
2019-01-13T11:44:02.037Z,987.71
2019-01-13T11:45:11.870Z,987.69
2019-01-13T11:46:22.104Z,987.59
2019-01-13T11:47:32.333Z,987.63
2019-01-13T11:48:42.187Z,987.6
2019-01-13T11:49:52.174Z,987.69
2019-01-13T11:51:03.788Z,987.57
2019-01-13T11:52:14.227Z,987.59
2019-01-13T11:53:24.451Z,987.55
2019-01-13T11:54:34.579Z,987.5
2019-01-13T11:55:45.180Z,987.53
2019-01-13T11:56:55.060Z,987.51
2019-01-13T11:58:05.737Z,987.51
2019-01-13T11:59:19.055Z,987.45
2019-01-13T12:00:29.876Z,987.42
2019-01-13T12:01:40.731Z,987.35
2019-01-13T12:02:52.765Z,987.36
2019-01-13T12:04:17.436Z,987.32
2019-01-13T12:05:28.824Z,987.33
2019-01-13T12:06:39.383Z,987.33
2019-01-13T12:07:50.490Z,987.26
2019-01-13T12:09:03.503Z,987.29
2019-01-13T12:10:14.139Z,987.25
2019-01-13T12:11:24.892Z,987.22
2019-01-13T12:12:35.555Z,987.19
2019-01-13T12:13:47.892Z,987.15
2019-01-13T12:15:00.028Z,987.07
2019-01-13T12:16:10.717Z,987.08
2019-01-13T12:17:21.181Z,987.11
2019-01-13T12:18:31.630Z,987.01
2019-01-13T12:19:48.700Z,986.99
2019-01-13T12:20:59.509Z,986.93
2019-01-13T12:22:10.079Z,986.92
2019-01-13T12:23:20.524Z,986.97
2019-01-13T12:24:30.678Z,986.91
2019-01-13T12:25:42.302Z,986.94
2019-01-13T12:26:59.299Z,986.9
2019-01-13T12:28:10.373Z,986.94
2019-01-13T12:29:21.233Z,986.83
2019-01-13T12:30:32.043Z,986.75
2019-01-13T12:31:42.794Z,986.88
2019-01-13T12:32:53.503Z,986.84
2019-01-13T12:34:04.124Z,986.78
2019-01-13T12:35:14.307Z,986.67
2019-01-13T12:36:25.305Z,986.7
2019-01-13T12:37:36.311Z,986.73
2019-01-13T12:38:47.352Z,986.69
2019-01-13T12:39:58.244Z,986.61
2019-01-13T12:41:09.066Z,986.55
2019-01-13T12:42:20.101Z,986.56
2019-01-13T12:43:31.071Z,986.53
2019-01-13T12:44:42.190Z,986.47
2019-01-13T12:45:53.609Z,986.45
2019-01-13T12:47:04.000Z,986.5
2019-01-13T12:48:14.462Z,986.45
2019-01-13T12:49:24.422Z,986.36
2019-01-13T12:50:34.704Z,986.4
2019-01-13T12:51:44.547Z,986.37
2019-01-13T12:52:54.707Z,986.38
2019-01-13T12:54:04.651Z,986.31
2019-01-13T12:55:14.991Z,986.24
2019-01-13T12:56:24.980Z,986.26
2019-01-13T12:57:34.843Z,986.22
2019-01-13T12:58:45.493Z,986.05
2019-01-13T12:59:55.972Z,986.09
2019-01-13T13:01:06.448Z,986.06
2019-01-13T13:02:16.549Z,986.01
2019-01-13T13:03:31.529Z,986.04
2019-01-13T13:04:41.721Z,986.04
2019-01-13T13:05:51.678Z,986.04
2019-01-13T13:07:01.784Z,986.04
2019-01-13T13:08:11.963Z,986.06
2019-01-13T13:09:22.335Z,985.99
2019-01-13T13:10:32.634Z,985.95
2019-01-13T13:11:43.353Z,985.94
2019-01-13T13:12:54.716Z,985.97
2019-01-13T13:14:05.337Z,985.79
2019-01-13T13:15:15.776Z,985.78
2019-01-13T13:16:26.827Z,985.68
2019-01-13T13:17:37.744Z,985.69
2019-01-13T13:18:48.609Z,985.74
2019-01-13T13:19:59.181Z,985.71
2019-01-13T13:21:10.787Z,985.62
2019-01-13T13:22:21.436Z,985.7
2019-01-13T13:23:31.324Z,985.64
2019-01-13T13:24:41.140Z,985.64
2019-01-13T13:25:51.199Z,985.62
2019-01-13T13:27:01.281Z,985.65
2019-01-13T13:28:11.191Z,985.6
2019-01-13T13:29:22.127Z,985.51
2019-01-13T13:30:32.383Z,985.57
2019-01-13T13:31:42.450Z,985.52
2019-01-13T13:32:52.525Z,985.43
2019-01-13T13:34:02.827Z,985.4
2019-01-13T13:35:12.968Z,985.55
2019-01-13T13:36:23.054Z,985.37
2019-01-13T13:37:33.214Z,985.33
2019-01-13T13:38:43.293Z,985.34
2019-01-13T13:39:53.170Z,985.3
2019-01-13T13:41:03.295Z,985.3
2019-01-13T13:42:13.378Z,985.25
2019-01-13T13:43:23.484Z,985.18
2019-01-13T13:44:33.332Z,985.17
2019-01-13T13:45:43.447Z,985.16
2019-01-13T13:46:53.604Z,985.06
2019-01-13T13:48:03.774Z,985.07
2019-01-13T13:49:13.878Z,985.04
2019-01-13T13:50:23.989Z,985.02
2019-01-13T13:51:33.864Z,985.09
2019-01-13T13:52:43.947Z,984.99
2019-01-13T13:53:54.033Z,984.88
2019-01-13T13:55:04.109Z,984.91
2019-01-13T13:56:14.184Z,984.91
2019-01-13T13:57:24.283Z,984.94
2019-01-13T13:58:34.440Z,984.9
2019-01-13T13:59:44.289Z,984.77
2019-01-13T14:00:54.121Z,984.86
2019-01-13T14:02:04.424Z,984.88
2019-01-13T14:03:14.551Z,984.73
2019-01-13T14:04:24.637Z,984.62
2019-01-13T14:05:34.766Z,984.69
2019-01-13T14:06:44.940Z,984.83
2019-01-13T14:07:55.002Z,984.75
2019-01-13T14:09:05.783Z,984.75
2019-01-13T14:10:15.884Z,984.64
2019-01-13T14:11:26.176Z,984.74
2019-01-13T14:12:36.259Z,984.69
2019-01-13T14:13:46.347Z,984.59
2019-01-13T14:14:56.395Z,984.46
2019-01-13T14:16:06.719Z,984.47
2019-01-13T14:17:16.555Z,984.48
2019-01-13T14:18:26.627Z,984.41
2019-01-13T14:19:36.444Z,984.45
2019-01-13T14:20:46.544Z,984.39
2019-01-13T14:21:56.638Z,984.41
2019-01-13T14:23:06.766Z,984.4
2019-01-13T14:24:16.603Z,984.4
2019-01-13T14:25:27.280Z,984.32
2019-01-13T14:26:37.402Z,984.35
2019-01-13T14:27:47.520Z,984.31
2019-01-13T14:28:57.339Z,984.23
2019-01-13T14:30:08.503Z,984.27
2019-01-13T14:31:20.139Z,984.24
2019-01-13T14:32:30.249Z,984.16
2019-01-13T14:33:40.406Z,984.2
2019-01-13T14:34:55.932Z,984.19
2019-01-13T14:36:07.208Z,984.13
2019-01-13T14:37:17.556Z,984.09
2019-01-13T14:38:27.693Z,984.15
2019-01-13T14:39:37.644Z,984.09
2019-01-13T14:40:53.979Z,984.09
2019-01-13T14:42:04.043Z,984.01
2019-01-13T14:43:14.213Z,984.09
2019-01-13T14:44:24.356Z,984.02
2019-01-13T14:45:34.490Z,983.96
2019-01-13T14:46:44.312Z,984
2019-01-13T14:47:54.204Z,983.82
2019-01-13T14:49:05.244Z,983.87
2019-01-13T14:50:15.320Z,983.83
2019-01-13T14:51:25.548Z,983.73
2019-01-13T14:52:36.015Z,983.81
2019-01-13T14:53:47.484Z,983.79
2019-01-13T14:54:57.158Z,983.59
2019-01-13T14:56:06.985Z,983.81
2019-01-13T14:57:17.194Z,983.64
2019-01-13T14:58:27.420Z,983.66
2019-01-13T14:59:37.690Z,983.69
2019-01-13T15:00:47.816Z,983.61
2019-01-13T15:01:58.246Z,983.57
2019-01-13T15:03:08.557Z,983.48
2019-01-13T15:04:18.771Z,983.5
2019-01-13T15:05:29.438Z,983.43
2019-01-13T15:06:40.150Z,983.43
2019-01-13T15:07:50.180Z,983.41
2019-01-13T15:09:01.595Z,983.35
2019-01-13T15:10:11.663Z,983.35
2019-01-13T15:11:21.741Z,983.46
2019-01-13T15:12:31.812Z,983.39
2019-01-13T15:13:43.446Z,983.48
2019-01-13T15:14:53.323Z,983.43
2019-01-13T15:16:05.292Z,983.35
2019-01-13T15:17:15.652Z,983.48
2019-01-13T15:18:25.734Z,983.35
2019-01-13T15:19:35.823Z,983.33
2019-01-13T15:20:46.183Z,983.29
2019-01-13T15:21:56.287Z,983.36
2019-01-13T15:23:06.115Z,983.33